createdAt,value
2023-05-21T00:01:06.102Z,20.22
2023-05-21T00:03:34.003Z,20.26
2023-05-21T00:06:01.826Z,20.42
2023-05-21T00:08:28.857Z,20.45
2023-05-21T00:10:55.823Z,20.40
2023-05-21T00:13:22.645Z,19.37
2023-05-21T00:15:49.472Z,19.53
2023-05-21T00:18:16.574Z,19.95
2023-05-21T00:20:43.435Z,20.20
2023-05-21T00:23:10.487Z,20.18
2023-05-21T00:25:37.615Z,20.08
2023-05-21T00:28:04.838Z,19.88
2023-05-21T00:30:31.611Z,19.93
2023-05-21T00:32:59.112Z,19.85
2023-05-21T00:35:25.967Z,19.98
2023-05-21T00:37:54.128Z,19.94
2023-05-21T00:40:21.189Z,19.90
2023-05-21T00:42:48.198Z,19.85
2023-05-21T00:45:15.304Z,19.77
2023-05-21T00:47:44.132Z,19.67
2023-05-21T00:50:12.017Z,19.71
2023-05-21T00:52:42.373Z,19.55
2023-05-21T00:55:10.211Z,19.63
2023-05-21T00:57:37.589Z,19.59
2023-05-21T01:00:07.679Z,19.70
2023-05-21T01:02:37.626Z,19.62
2023-05-21T01:05:08.086Z,19.07
2023-05-21T01:07:36.651Z,19.33
2023-05-21T01:10:05.366Z,19.44
2023-05-21T01:12:34.229Z,19.37
2023-05-21T01:15:05.522Z,19.41
2023-05-21T01:17:34.359Z,19.39
2023-05-21T01:20:02.023Z,19.26
2023-05-21T01:22:33.572Z,19.23
2023-05-21T01:25:02.949Z,19.32
2023-05-21T01:27:30.064Z,19.18
2023-05-21T01:29:57.533Z,19.16
2023-05-21T01:32:31.706Z,19.14
2023-05-21T01:35:17.422Z,19.16
2023-05-21T01:38:03.545Z,18.96
2023-05-21T01:40:39.478Z,18.88
2023-05-21T01:43:07.972Z,18.98
2023-05-21T01:45:38.439Z,19.04
2023-05-21T01:48:07.818Z,18.95
2023-05-21T01:50:37.534Z,19.06
2023-05-21T01:53:06.083Z,19.03
2023-05-21T01:55:33.479Z,18.93
2023-05-21T01:58:02.293Z,19.05
2023-05-21T02:00:29.733Z,19.00
2023-05-21T02:02:56.991Z,18.99
2023-05-21T02:05:24.118Z,18.96
2023-05-21T02:07:52.277Z,19.13
2023-05-21T02:10:19.796Z,19.05
2023-05-21T02:12:46.861Z,18.97
2023-05-21T02:15:18.296Z,18.86
2023-05-21T02:17:48.066Z,18.27
2023-05-21T02:20:14.980Z,18.26
2023-05-21T02:22:46.797Z,17.87
2023-05-21T02:25:16.052Z,17.26
2023-05-21T02:27:43.683Z,16.84
2023-05-21T02:30:12.494Z,17.24
2023-05-21T02:32:42.709Z,17.18
2023-05-21T02:35:11.680Z,17.73
2023-05-21T02:37:40.580Z,17.69
2023-05-21T02:40:10.247Z,17.26
2023-05-21T02:42:39.778Z,17.72
2023-05-21T02:45:11.636Z,18.09
2023-05-21T02:47:39.307Z,17.77
2023-05-21T02:50:07.746Z,17.79
2023-05-21T02:52:34.723Z,17.58
2023-05-21T02:55:01.691Z,17.82
2023-05-21T02:57:28.596Z,17.56
2023-05-21T02:59:55.418Z,18.05
2023-05-21T03:02:22.420Z,18.21
2023-05-21T03:04:51.677Z,18.00
2023-05-21T03:07:20.077Z,18.36
2023-05-21T03:09:47.298Z,18.33
2023-05-21T03:12:14.108Z,18.13
2023-05-21T03:14:44.307Z,18.48
2023-05-21T03:17:14.194Z,18.47
2023-05-21T03:19:42.348Z,18.70
2023-05-21T03:22:09.566Z,18.76
2023-05-21T03:24:36.973Z,18.77
2023-05-21T03:27:06.495Z,18.82
2023-05-21T03:29:34.226Z,18.87
2023-05-21T03:32:01.525Z,19.00
2023-05-21T03:34:28.607Z,18.76
2023-05-21T03:36:55.512Z,18.75
2023-05-21T03:39:22.322Z,18.91
2023-05-21T03:41:49.321Z,18.97
2023-05-21T03:44:16.132Z,18.97
2023-05-21T03:46:42.966Z,19.09
2023-05-21T03:49:09.809Z,19.18
2023-05-21T03:51:38.445Z,19.61
2023-05-21T03:54:05.356Z,19.81
2023-05-21T03:56:32.264Z,19.96
2023-05-21T03:58:59.113Z,20.25
2023-05-21T04:01:25.933Z,20.53
2023-05-21T04:03:52.885Z,20.91
2023-05-21T04:06:19.862Z,21.35
2023-05-21T04:08:46.984Z,21.53
2023-05-21T04:11:13.765Z,21.99
2023-05-21T04:13:40.707Z,22.43
2023-05-21T04:16:09.520Z,22.51
2023-05-21T04:18:36.498Z,22.29
2023-05-21T04:21:03.527Z,22.05
2023-05-21T04:23:30.379Z,21.68
2023-05-21T04:25:57.221Z,21.97
2023-05-21T04:28:24.394Z,22.30
2023-05-21T04:30:51.300Z,22.68
2023-05-21T04:33:18.535Z,23.20
2023-05-21T04:35:50.291Z,23.52
2023-05-21T04:38:19.652Z,23.64
2023-05-21T04:40:53.433Z,23.89
2023-05-21T04:43:26.377Z,23.63
2023-05-21T04:45:56.451Z,24.01
2023-05-21T04:48:25.036Z,24.22
2023-05-21T04:50:53.729Z,24.53
2023-05-21T04:53:21.020Z,24.73
2023-05-21T04:55:48.154Z,25.76
2023-05-21T04:58:18.066Z,26.51
2023-05-21T05:00:47.132Z,27.39
2023-05-21T05:03:14.426Z,28.00
2023-05-21T05:05:42.102Z,28.13
2023-05-21T05:08:09.021Z,28.15
2023-05-21T05:10:36.376Z,28.44
2023-05-21T05:13:03.480Z,28.83
2023-05-21T05:15:30.349Z,29.11
2023-05-21T05:17:57.322Z,29.18
2023-05-21T05:20:24.225Z,29.35
2023-05-21T05:22:51.329Z,29.51
2023-05-21T05:25:18.676Z,29.53
2023-05-21T05:27:45.523Z,29.45
2023-05-21T05:30:12.578Z,29.40
2023-05-21T05:32:39.473Z,29.96
2023-05-21T05:35:07.278Z,30.13
2023-05-21T05:37:34.357Z,30.25
2023-05-21T05:40:01.202Z,30.36
2023-05-21T05:42:28.155Z,29.29
2023-05-21T05:44:54.996Z,29.34
2023-05-21T05:47:22.244Z,28.94
2023-05-21T05:49:49.158Z,28.17
2023-05-21T05:52:16.366Z,26.66
2023-05-21T05:54:43.253Z,27.16
2023-05-21T05:57:10.209Z,26.43
2023-05-21T05:59:37.011Z,25.77
2023-05-21T06:02:03.968Z,25.23
2023-05-21T06:04:30.783Z,25.11
2023-05-21T06:06:57.982Z,25.05
2023-05-21T06:09:25.470Z,24.13
2023-05-21T06:11:52.312Z,23.36
2023-05-21T06:14:19.346Z,23.32
2023-05-21T06:16:46.324Z,23.85
2023-05-21T06:19:13.403Z,24.08
2023-05-21T06:21:40.353Z,23.71
2023-05-21T06:24:07.261Z,23.41
2023-05-21T06:26:34.095Z,23.05
2023-05-21T06:29:01.091Z,22.90
2023-05-21T06:31:28.144Z,23.49
2023-05-21T06:33:55.112Z,24.58
2023-05-21T06:36:22.269Z,25.25
2023-05-21T06:38:49.070Z,24.77
2023-05-21T06:41:16.115Z,25.44
2023-05-21T06:43:42.961Z,25.48
2023-05-21T06:46:09.824Z,25.49
2023-05-21T06:48:36.817Z,25.14
2023-05-21T06:51:03.704Z,25.67
2023-05-21T06:53:30.788Z,26.20
2023-05-21T06:55:57.742Z,26.22
2023-05-21T06:58:24.586Z,26.53
2023-05-21T07:00:51.524Z,26.67
2023-05-21T07:03:18.539Z,25.45
2023-05-21T07:05:45.483Z,26.49
2023-05-21T07:08:12.436Z,27.05
2023-05-21T07:10:39.283Z,27.39
2023-05-21T07:13:06.350Z,28.00
2023-05-21T07:15:33.495Z,27.90
2023-05-21T07:18:00.603Z,28.59
2023-05-21T07:20:27.486Z,28.74
2023-05-21T07:22:54.322Z,29.12
2023-05-21T07:25:21.271Z,29.01
2023-05-21T07:27:50.104Z,28.20
2023-05-21T07:30:17.050Z,29.16
2023-05-21T07:32:46.021Z,29.17
2023-05-21T07:35:12.863Z,28.72
2023-05-21T07:37:39.759Z,29.57
2023-05-21T07:40:07.951Z,30.24
2023-05-21T07:42:34.945Z,30.61
2023-05-21T07:45:02.448Z,30.84
2023-05-21T07:47:29.323Z,31.31
2023-05-21T07:49:56.151Z,30.69
2023-05-21T07:52:23.037Z,29.07
2023-05-21T07:54:49.885Z,29.40
2023-05-21T07:57:16.834Z,29.62
2023-05-21T07:59:43.625Z,29.12
2023-05-21T08:02:10.777Z,27.52
2023-05-21T08:04:40.900Z,28.40
2023-05-21T08:07:08.295Z,28.06
2023-05-21T08:09:35.147Z,28.31
2023-05-21T08:12:02.042Z,29.12
2023-05-21T08:14:28.856Z,27.96
2023-05-21T08:16:55.969Z,27.58
2023-05-21T08:19:22.910Z,27.02
2023-05-21T08:21:52.082Z,26.35
2023-05-21T08:24:19.690Z,26.31
2023-05-21T08:26:47.582Z,25.84
2023-05-21T08:29:14.410Z,26.22
2023-05-21T08:31:41.751Z,27.10
2023-05-21T08:34:08.601Z,26.50
2023-05-21T08:36:36.193Z,27.05
2023-05-21T08:39:03.013Z,26.41
2023-05-21T08:41:31.628Z,26.66
2023-05-21T08:44:02.364Z,26.12
2023-05-21T08:46:36.446Z,26.82
2023-05-21T08:49:03.799Z,26.88
2023-05-21T08:51:31.605Z,26.57
2023-05-21T08:54:00.165Z,27.74
2023-05-21T08:56:27.875Z,27.33
2023-05-21T08:58:55.857Z,26.75
2023-05-21T09:01:24.905Z,27.25
2023-05-21T09:04:04.791Z,27.60
2023-05-21T09:06:41.414Z,28.29
2023-05-21T09:09:32.201Z,28.55
2023-05-21T09:11:59.088Z,28.52
2023-05-21T09:14:27.187Z,28.25
2023-05-21T09:16:54.128Z,27.83
2023-05-21T09:19:24.855Z,27.49
2023-05-21T09:21:53.003Z,28.00
2023-05-21T09:24:23.148Z,28.40
2023-05-21T09:26:50.174Z,27.25
2023-05-21T09:29:17.036Z,27.96
2023-05-21T09:31:47.896Z,28.37
2023-05-21T09:34:15.145Z,28.41
2023-05-21T09:36:41.995Z,28.73
2023-05-21T09:39:08.908Z,28.92
2023-05-21T09:41:36.983Z,28.61
2023-05-21T09:44:04.366Z,28.93
2023-05-21T09:46:41.685Z,29.23
2023-05-21T09:49:23.960Z,29.43
2023-05-21T09:51:50.984Z,29.65
2023-05-21T09:54:17.792Z,28.72
2023-05-21T09:56:44.759Z,29.81
2023-05-21T09:59:11.591Z,30.69
2023-05-21T10:01:38.924Z,29.82
2023-05-21T10:04:09.537Z,30.07
2023-05-21T10:06:48.073Z,29.59
2023-05-21T10:09:18.959Z,28.69
2023-05-21T10:11:49.622Z,28.55
2023-05-21T10:14:25.700Z,29.23
2023-05-21T10:16:54.741Z,28.60
2023-05-21T10:19:25.058Z,28.88
2023-05-21T10:21:52.898Z,29.29
2023-05-21T10:24:20.365Z,28.96
2023-05-21T10:26:48.185Z,29.88
2023-05-21T10:29:18.122Z,29.89
2023-05-21T10:31:50.135Z,31.04
2023-05-21T10:34:17.756Z,30.14
2023-05-21T10:36:46.212Z,29.40
2023-05-21T10:39:14.186Z,29.27
2023-05-21T10:41:55.812Z,29.33
2023-05-21T10:44:44.439Z,30.55
2023-05-21T10:47:38.669Z,29.82
2023-05-21T10:50:30.665Z,29.68
2023-05-21T10:53:00.626Z,28.87
2023-05-21T10:55:48.774Z,29.07
2023-05-21T10:58:47.864Z,29.97
2023-05-21T11:01:15.825Z,30.92
2023-05-21T11:03:42.938Z,29.46
2023-05-21T11:06:11.837Z,29.90
2023-05-21T11:08:39.240Z,29.86
2023-05-21T11:11:06.428Z,30.50
2023-05-21T11:13:52.099Z,29.71
2023-05-21T11:16:21.365Z,30.89
2023-05-21T11:18:48.420Z,31.39
2023-05-21T11:21:21.245Z,30.90
2023-05-21T11:23:51.369Z,31.26
2023-05-21T11:26:20.175Z,31.17
2023-05-21T11:28:47.078Z,30.29
2023-05-21T11:31:27.243Z,29.27
2023-05-21T11:34:16.341Z,31.05
2023-05-21T11:36:50.180Z,32.04
2023-05-21T11:39:25.130Z,31.62
2023-05-21T11:42:01.019Z,32.29
2023-05-21T11:44:48.285Z,32.56
2023-05-21T11:47:21.257Z,30.60
2023-05-21T11:49:48.426Z,30.82
2023-05-21T11:52:15.417Z,30.48
2023-05-21T11:54:48.749Z,29.26
2023-05-21T11:57:16.904Z,30.18
2023-05-21T11:59:43.784Z,29.17
2023-05-21T12:02:17.809Z,30.06
2023-05-21T12:04:46.705Z,30.85
2023-05-21T12:07:15.317Z,30.89
2023-05-21T12:09:43.759Z,30.55
2023-05-21T12:12:13.519Z,30.49
2023-05-21T12:14:40.813Z,30.17
2023-05-21T12:17:10.732Z,29.07
2023-05-21T12:19:37.974Z,29.18
2023-05-21T12:22:06.045Z,29.15
2023-05-21T12:24:34.003Z,29.83
2023-05-21T12:27:02.400Z,29.80
2023-05-21T12:29:31.007Z,29.91
2023-05-21T12:32:02.044Z,29.16
2023-05-21T12:34:51.800Z,29.43
2023-05-21T12:37:22.325Z,29.11
2023-05-21T12:39:59.372Z,28.46
2023-05-21T12:42:30.943Z,28.28
2023-05-21T12:44:58.487Z,28.56
2023-05-21T12:47:26.912Z,28.67
2023-05-21T12:49:58.105Z,28.48
2023-05-21T12:52:25.515Z,28.03
2023-05-21T12:54:53.992Z,28.56
2023-05-21T12:57:28.468Z,29.13
2023-05-21T12:59:58.194Z,29.05
2023-05-21T13:02:26.311Z,29.03
2023-05-21T13:05:01.727Z,29.57
2023-05-21T13:07:30.749Z,29.56
2023-05-21T13:09:58.948Z,28.43
2023-05-21T13:12:29.371Z,29.79
2023-05-21T13:14:57.982Z,29.77
2023-05-21T13:17:26.162Z,29.94
2023-05-21T13:20:16.103Z,29.46
2023-05-21T13:22:48.163Z,29.71
2023-05-21T13:25:18.460Z,28.75
2023-05-21T13:27:45.411Z,29.52
2023-05-21T13:30:12.811Z,29.62
2023-05-21T13:32:40.945Z,29.83
2023-05-21T13:35:08.929Z,29.80
2023-05-21T13:37:36.425Z,28.64
2023-05-21T13:40:11.369Z,29.27
2023-05-21T13:42:39.010Z,29.58
2023-05-21T13:45:07.513Z,29.21
2023-05-21T13:47:35.728Z,29.67
2023-05-21T13:50:04.856Z,30.15
2023-05-21T13:52:31.756Z,29.97
2023-05-21T13:54:58.721Z,29.46
2023-05-21T13:57:27.101Z,28.66
2023-05-21T13:59:54.063Z,28.86
2023-05-21T14:02:21.046Z,29.07
2023-05-21T14:04:48.746Z,28.59
2023-05-21T14:07:15.693Z,28.63
2023-05-21T14:09:42.701Z,28.35
2023-05-21T14:12:09.741Z,28.93
2023-05-21T14:14:36.577Z,28.93
2023-05-21T14:17:03.564Z,29.20
2023-05-21T14:19:30.544Z,28.70
2023-05-21T14:21:57.453Z,28.95
2023-05-21T14:24:24.267Z,28.61
2023-05-21T14:26:51.135Z,28.76
2023-05-21T14:29:18.047Z,28.28
2023-05-21T14:31:46.463Z,28.17
2023-05-21T14:34:13.321Z,28.21
2023-05-21T14:36:40.341Z,28.74
2023-05-21T14:39:07.236Z,28.05
2023-05-21T14:41:34.075Z,28.55
2023-05-21T14:44:00.910Z,28.43
2023-05-21T14:46:27.757Z,28.15
2023-05-21T14:48:59.265Z,28.52
2023-05-21T14:51:26.221Z,28.82
2023-05-21T14:53:53.146Z,28.57
2023-05-21T14:56:22.246Z,28.42
2023-05-21T14:58:49.518Z,28.93
2023-05-21T15:01:16.460Z,28.70
2023-05-21T15:03:43.426Z,28.53
2023-05-21T15:06:10.718Z,27.95
2023-05-21T15:08:37.559Z,28.17
2023-05-21T15:11:05.574Z,28.02
2023-05-21T15:13:32.410Z,28.06
2023-05-21T15:15:59.199Z,27.86
2023-05-21T15:18:26.064Z,28.22
2023-05-21T15:20:53.089Z,28.20
2023-05-21T15:23:19.979Z,27.37
2023-05-21T15:25:46.847Z,27.59
2023-05-21T15:28:13.675Z,27.63
2023-05-21T15:30:40.914Z,27.90
2023-05-21T15:33:08.182Z,27.59
2023-05-21T15:35:36.390Z,27.53
2023-05-21T15:38:03.676Z,27.38
2023-05-21T15:40:31.408Z,27.83
2023-05-21T15:42:58.316Z,27.16
2023-05-21T15:45:25.498Z,27.38
2023-05-21T15:47:52.377Z,27.77
2023-05-21T15:50:19.244Z,27.80
2023-05-21T15:52:46.019Z,27.52
2023-05-21T15:55:14.378Z,27.43
2023-05-21T15:57:41.406Z,27.01
2023-05-21T16:00:10.048Z,27.02
2023-05-21T16:02:37.227Z,26.93
2023-05-21T16:05:04.311Z,26.66
2023-05-21T16:07:31.107Z,26.99
2023-05-21T16:09:58.065Z,26.99
2023-05-21T16:12:24.967Z,26.68
2023-05-21T16:14:51.831Z,27.32
2023-05-21T16:17:21.987Z,26.65
2023-05-21T16:19:48.863Z,26.85
2023-05-21T16:22:15.794Z,26.90
2023-05-21T16:24:42.787Z,26.59
2023-05-21T16:27:09.707Z,26.81
2023-05-21T16:29:38.682Z,26.95
2023-05-21T16:32:07.177Z,26.85
2023-05-21T16:34:34.704Z,27.04
2023-05-21T16:37:01.514Z,27.24
2023-05-21T16:39:28.540Z,27.37
2023-05-21T16:41:59.707Z,27.05
2023-05-21T16:44:27.037Z,26.91
2023-05-21T16:46:54.168Z,26.88
2023-05-21T16:49:21.006Z,26.92
2023-05-21T16:51:47.997Z,27.15
2023-05-21T16:54:15.502Z,27.33
2023-05-21T16:56:42.287Z,26.96
2023-05-21T16:59:09.580Z,27.40
2023-05-21T17:01:36.966Z,27.56
2023-05-21T17:04:04.179Z,27.45
2023-05-21T17:06:31.792Z,27.32
2023-05-21T17:08:58.649Z,26.47
2023-05-21T17:11:25.829Z,26.33
2023-05-21T17:13:52.668Z,26.30
2023-05-21T17:16:19.521Z,26.09
2023-05-21T17:18:46.425Z,26.85
2023-05-21T17:21:13.773Z,26.96
2023-05-21T17:23:43.013Z,26.96
2023-05-21T17:26:09.897Z,27.18
2023-05-21T17:28:37.056Z,27.48
2023-05-21T17:31:04.221Z,27.21
2023-05-21T17:33:31.242Z,27.14
2023-05-21T17:35:58.066Z,27.34
2023-05-21T17:38:24.935Z,26.96
2023-05-21T17:40:51.819Z,27.10
2023-05-21T17:43:18.612Z,27.51
2023-05-21T17:45:45.660Z,27.29
2023-05-21T17:48:12.995Z,27.56
2023-05-21T17:50:39.881Z,27.67
2023-05-21T17:53:06.794Z,27.58
2023-05-21T17:55:33.658Z,27.65
2023-05-21T17:58:00.487Z,27.74
2023-05-21T18:00:27.372Z,27.74
2023-05-21T18:02:54.188Z,27.80
2023-05-21T18:05:20.996Z,27.88
2023-05-21T18:07:48.402Z,27.85
2023-05-21T18:10:15.698Z,27.75
2023-05-21T18:12:42.641Z,27.75
2023-05-21T18:15:09.935Z,27.79
2023-05-21T18:17:36.751Z,27.69
2023-05-21T18:20:04.656Z,27.58
2023-05-21T18:22:31.565Z,27.50
2023-05-21T18:24:58.369Z,27.40
2023-05-21T18:27:25.201Z,27.35
2023-05-21T18:29:52.486Z,27.26
2023-05-21T18:32:19.535Z,27.17
2023-05-21T18:34:47.861Z,27.00
2023-05-21T18:37:15.032Z,26.97
2023-05-21T18:39:41.922Z,26.95
2023-05-21T18:42:13.253Z,26.94
2023-05-21T18:44:41.189Z,26.59
2023-05-21T18:47:08.274Z,26.53
2023-05-21T18:49:36.369Z,26.37
2023-05-21T18:52:04.609Z,26.45
2023-05-21T18:54:31.491Z,26.09
2023-05-21T18:57:01.162Z,26.26
2023-05-21T18:59:29.371Z,26.17
2023-05-21T19:01:56.313Z,25.97
2023-05-21T19:04:23.300Z,25.91
2023-05-21T19:06:50.168Z,25.83
2023-05-21T19:09:17.167Z,25.77
2023-05-21T19:11:44.194Z,25.61
2023-05-21T19:14:11.015Z,25.71
2023-05-21T19:16:38.023Z,25.60
2023-05-21T19:19:06.182Z,25.52
2023-05-21T19:21:33.327Z,25.42
2023-05-21T19:24:00.312Z,25.37
2023-05-21T19:26:27.313Z,25.30
2023-05-21T19:28:54.765Z,25.19
2023-05-21T19:31:25.502Z,25.17
2023-05-21T19:33:52.688Z,25.06
2023-05-21T19:36:21.229Z,24.53
2023-05-21T19:38:49.640Z,24.72
2023-05-21T19:41:17.202Z,24.56
2023-05-21T19:43:45.101Z,24.48
2023-05-21T19:46:12.057Z,23.90
2023-05-21T19:48:39.094Z,24.19
2023-05-21T19:51:06.214Z,24.23
2023-05-21T19:53:33.193Z,24.06
2023-05-21T19:56:00.300Z,24.04
2023-05-21T19:58:29.693Z,24.00
2023-05-21T20:00:58.620Z,24.03
2023-05-21T20:03:35.614Z,23.99
2023-05-21T20:06:03.517Z,23.95
2023-05-21T20:08:30.961Z,23.89
2023-05-21T20:10:57.879Z,23.76
2023-05-21T20:13:24.961Z,23.72
2023-05-21T20:15:52.015Z,23.82
2023-05-21T20:18:21.664Z,23.62
2023-05-21T20:20:49.320Z,23.49
2023-05-21T20:23:16.095Z,23.30
2023-05-21T20:25:42.988Z,23.28
2023-05-21T20:28:10.163Z,23.31
2023-05-21T20:30:53.470Z,23.28
2023-05-21T20:33:20.676Z,23.20
2023-05-21T20:35:47.498Z,23.00
2023-05-21T20:38:16.000Z,22.91
2023-05-21T20:40:44.366Z,22.89
2023-05-21T20:43:15.156Z,23.00
2023-05-21T20:45:42.117Z,22.85
2023-05-21T20:48:10.065Z,22.66
2023-05-21T20:50:37.663Z,22.62
2023-05-21T20:53:04.752Z,22.52
2023-05-21T20:55:34.997Z,22.54
2023-05-21T20:58:03.219Z,22.51
2023-05-21T21:00:30.229Z,22.66
2023-05-21T21:02:58.530Z,22.54
2023-05-21T21:05:25.460Z,22.27
2023-05-21T21:07:55.468Z,21.96
2023-05-21T21:10:22.651Z,21.97
2023-05-21T21:12:49.575Z,21.95
2023-05-21T21:15:16.594Z,21.99
2023-05-21T21:17:43.398Z,21.97
2023-05-21T21:20:12.717Z,21.87
2023-05-21T21:22:39.599Z,21.84
2023-05-21T21:25:06.888Z,21.99
2023-05-21T21:27:33.912Z,21.80
2023-05-21T21:30:00.909Z,21.57
2023-05-21T21:32:27.860Z,21.72
2023-05-21T21:34:54.644Z,21.65
2023-05-21T21:37:21.484Z,21.48
2023-05-21T21:39:48.346Z,21.53
2023-05-21T21:42:15.178Z,21.29
2023-05-21T21:44:42.301Z,21.07
2023-05-21T21:47:09.101Z,21.09
2023-05-21T21:49:35.997Z,20.45
2023-05-21T21:52:02.906Z,20.84
2023-05-21T21:54:29.737Z,20.74
2023-05-21T21:56:56.577Z,20.74
2023-05-21T21:59:23.492Z,20.74
2023-05-21T22:01:50.482Z,20.83
2023-05-21T22:04:17.391Z,20.89
2023-05-21T22:06:45.536Z,20.78
2023-05-21T22:09:12.592Z,20.61
2023-05-21T22:11:40.820Z,20.50
2023-05-21T22:14:07.987Z,20.59
2023-05-21T22:16:34.862Z,20.62
2023-05-21T22:19:01.922Z,20.50
2023-05-21T22:21:29.525Z,20.71
2023-05-21T22:23:56.466Z,20.63
2023-05-21T22:26:23.394Z,20.43
2023-05-21T22:28:50.373Z,20.39
2023-05-21T22:31:17.711Z,20.53
2023-05-21T22:33:44.590Z,20.02
2023-05-21T22:36:11.484Z,20.34
2023-05-21T22:38:38.516Z,20.39
2023-05-21T22:41:05.686Z,20.32
2023-05-21T22:43:34.913Z,20.19
2023-05-21T22:46:02.069Z,20.36
2023-05-21T22:48:32.069Z,20.35
2023-05-21T22:51:01.985Z,20.04
2023-05-21T22:53:29.012Z,20.15
2023-05-21T22:55:55.821Z,19.88
2023-05-21T22:58:22.664Z,20.04
2023-05-21T23:00:49.772Z,20.00
2023-05-21T23:03:16.949Z,19.98
2023-05-21T23:05:44.155Z,19.84
2023-05-21T23:08:11.218Z,19.56
2023-05-21T23:10:38.147Z,19.77
2023-05-21T23:13:05.229Z,19.75
2023-05-21T23:15:32.072Z,19.41
2023-05-21T23:17:59.661Z,19.12
2023-05-21T23:20:26.705Z,19.37
2023-05-21T23:22:53.697Z,19.33
2023-05-21T23:25:20.610Z,19.48
2023-05-21T23:27:47.434Z,19.52
2023-05-21T23:30:14.631Z,19.59
2023-05-21T23:32:41.652Z,19.56
2023-05-21T23:35:10.096Z,19.57
2023-05-21T23:37:36.922Z,19.61
2023-05-21T23:40:04.020Z,19.70
2023-05-21T23:42:30.949Z,19.54
2023-05-21T23:44:57.762Z,19.50
2023-05-21T23:47:25.566Z,19.45
2023-05-21T23:49:53.015Z,19.26
2023-05-21T23:52:19.968Z,19.32
2023-05-21T23:54:46.760Z,19.36
2023-05-21T23:57:13.736Z,19.39
2023-05-21T23:59:40.711Z,19.10
